ロンドン/ヒースロー の空港の天気 - METARとTAF

ロンドン・ヒースロー空港 ( EGLL / LHR ) - イギリス ロンドン
飛行場実況気象(Metar)
観測時間01/23 01:50 GMT (01/23 01:50 UTC)
風向・風速西北西 3m/s
視程10km以上
天気現象
全天を覆う雲 雲底高度 270m
気温3℃
湿度87%
気圧994hPa
METAREGLL 230150Z AUTO 29006KT 9999 OVC009 03/01 Q0994 BECMG SCT009
過去の天気等 Google飛行場航空写真 Wunderground天気予報

過去48時間のMETAR

飛行場予報(TAF)
発表時間: 1/22 22:57 GMT (1/22 22:57 UTC)
予報対象時間: 23日0時 GMT ~ 24日6時 GMT
風向・風速西南西 3m/s
視程10km以上
全天の4割程度の雲 雲底高度 910m
23日0時 GMT ~ 23日10時 GMT に一時的に
視程8000m
全天の8割程度の雲 雲底高度 240m
23日1時 GMT から 確率 30% で
視程4000m
天気現象もや
全天の8割程度の雲 雲底高度 120m
23日12時 GMT ~ 23日15時 GMT に徐々に
風向・風速西北西 5m/s
23日13時 GMT ~ 23日18時 GMT に 確率 30% で一時的に
視程6000m
天気現象弱いしゅう雨雪
24日3時 GMT ~ 24日6時 GMT に徐々に
風向・風速南 3m/s
TAF EGLL 222257Z 2300/2406 24006KT 9999 SCT030
TEMPO 2300/2310 8000 BKN008
PROB30 2301/2310 4000 BR BKN004
BECMG 2312/2315 30010KT
PROB30 TEMPO 2313/2318 6000 -SHRASN
BECMG 2403/2406 18005KT